createdAt,value
2022-12-31T00:00:12.061Z,0.80
2022-12-31T00:02:39.367Z,0.80
2022-12-31T00:05:07.602Z,0.80
2022-12-31T00:10:01.876Z,1.10
2022-12-31T00:12:29.072Z,0.75
2022-12-31T00:14:56.220Z,0.80
2022-12-31T00:17:23.319Z,0.80
2022-12-31T00:19:50.498Z,0.80
2022-12-31T00:22:17.684Z,0.70
2022-12-31T00:24:44.830Z,0.90
2022-12-31T00:27:11.992Z,1.10
2022-12-31T00:29:39.113Z,0.90
2022-12-31T00:32:06.348Z,0.80
2022-12-31T00:34:34.152Z,0.70
2022-12-31T00:37:01.325Z,0.85
2022-12-31T00:39:28.493Z,0.90
2022-12-31T00:41:55.694Z,1.02
2022-12-31T00:44:22.901Z,0.70
2022-12-31T00:46:50.174Z,0.60
2022-12-31T00:49:17.370Z,0.70
2022-12-31T00:51:46.571Z,0.80
2022-12-31T00:54:15.455Z,0.95
2022-12-31T00:56:42.566Z,0.75
2022-12-31T00:59:09.802Z,0.60
2022-12-31T01:01:38.439Z,0.60
2022-12-31T01:04:17.049Z,0.70
2022-12-31T01:06:44.595Z,0.60
2022-12-31T01:09:12.782Z,0.70
2022-12-31T01:11:39.947Z,0.65
2022-12-31T01:14:07.149Z,0.65
2022-12-31T01:16:34.286Z,0.80
2022-12-31T01:19:02.928Z,0.60
2022-12-31T01:21:30.596Z,0.60
2022-12-31T01:23:58.471Z,0.93
2022-12-31T01:26:25.788Z,0.60
2022-12-31T01:28:52.985Z,0.60
2022-12-31T01:31:21.087Z,0.73
2022-12-31T01:33:48.551Z,0.60
2022-12-31T01:36:23.534Z,0.60
2022-12-31T01:38:53.171Z,0.60
2022-12-31T01:41:23.750Z,0.60
2022-12-31T01:43:55.626Z,0.75
2022-12-31T01:46:33.838Z,1.05
2022-12-31T01:49:02.767Z,0.65
2022-12-31T01:51:31.911Z,1.00
2022-12-31T01:53:59.777Z,0.80
2022-12-31T01:56:27.004Z,0.50
2022-12-31T01:58:55.942Z,0.68
2022-12-31T02:01:29.638Z,0.60
2022-12-31T02:03:58.110Z,0.50
2022-12-31T02:06:28.173Z,0.80
2022-12-31T02:08:56.517Z,0.50
2022-12-31T02:11:31.229Z,0.63
2022-12-31T02:14:00.934Z,0.63
2022-12-31T02:16:46.563Z,0.70
2022-12-31T02:19:16.444Z,0.60
2022-12-31T02:21:43.600Z,0.55
2022-12-31T02:24:10.821Z,0.63
2022-12-31T02:26:43.181Z,0.40
2022-12-31T02:29:13.347Z,0.68
2022-12-31T02:31:44.391Z,0.50
2022-12-31T02:34:28.437Z,0.55
2022-12-31T02:36:56.960Z,0.70
2022-12-31T02:39:24.116Z,0.47
2022-12-31T02:41:52.296Z,0.50
2022-12-31T02:44:32.261Z,0.55
2022-12-31T02:47:17.449Z,0.55
2022-12-31T02:49:56.897Z,0.60
2022-12-31T02:52:39.447Z,0.40
2022-12-31T02:55:29.854Z,0.57
2022-12-31T02:58:02.755Z,0.60
2022-12-31T03:00:50.066Z,0.50
2022-12-31T03:03:17.770Z,0.50
2022-12-31T03:05:45.516Z,0.40
2022-12-31T03:08:12.680Z,0.57
2022-12-31T03:10:39.767Z,0.40
2022-12-31T03:13:06.888Z,0.40
2022-12-31T03:15:34.764Z,0.57
2022-12-31T03:18:06.151Z,0.60
2022-12-31T03:21:02.086Z,0.65
2022-12-31T03:23:31.247Z,0.30
2022-12-31T03:25:59.096Z,0.50
2022-12-31T03:28:27.694Z,0.50
2022-12-31T03:30:56.242Z,0.60
2022-12-31T03:33:23.550Z,0.68
2022-12-31T03:35:51.117Z,0.50
2022-12-31T03:38:18.893Z,0.47
2022-12-31T03:40:47.306Z,0.60
2022-12-31T03:43:14.861Z,0.30
2022-12-31T03:45:42.178Z,0.50
2022-12-31T03:48:10.629Z,0.40
2022-12-31T03:50:38.144Z,0.47
2022-12-31T03:53:05.360Z,0.40
2022-12-31T03:55:32.559Z,0.43
2022-12-31T03:57:59.905Z,0.55
2022-12-31T04:00:27.068Z,0.50
2022-12-31T04:02:54.281Z,0.52
2022-12-31T04:05:21.983Z,0.70
2022-12-31T04:07:49.456Z,0.47
2022-12-31T04:10:17.422Z,0.30
2022-12-31T04:12:45.011Z,0.30
2022-12-31T04:15:15.625Z,0.50
2022-12-31T04:17:42.924Z,0.57
2022-12-31T04:20:10.393Z,0.47
2022-12-31T04:22:37.455Z,0.52
2022-12-31T04:25:05.214Z,0.50
2022-12-31T04:27:32.292Z,0.40
2022-12-31T04:29:59.437Z,0.40
2022-12-31T04:32:26.515Z,0.55
2022-12-31T04:34:53.636Z,0.40
2022-12-31T04:37:20.720Z,0.30
2022-12-31T04:39:47.979Z,0.60
2022-12-31T04:42:15.122Z,0.40
2022-12-31T04:44:42.212Z,0.40
2022-12-31T04:47:09.328Z,0.68
2022-12-31T04:49:36.432Z,0.40
2022-12-31T04:52:03.854Z,0.38
2022-12-31T04:54:30.984Z,0.40
2022-12-31T04:56:58.091Z,0.40
2022-12-31T04:59:25.188Z,0.40
2022-12-31T05:01:52.419Z,0.40
2022-12-31T05:04:19.535Z,0.40
2022-12-31T05:06:46.650Z,0.30
2022-12-31T05:09:13.933Z,0.40
2022-12-31T05:11:41.029Z,0.47
2022-12-31T05:14:08.187Z,0.30
2022-12-31T05:16:35.380Z,0.38
2022-12-31T05:19:02.620Z,0.40
2022-12-31T05:21:29.988Z,0.30
2022-12-31T05:23:57.098Z,0.40
2022-12-31T05:26:24.214Z,0.50
2022-12-31T05:28:51.270Z,0.20
2022-12-31T05:31:19.951Z,0.40
2022-12-31T05:33:47.067Z,0.22
2022-12-31T05:36:14.670Z,0.38
2022-12-31T05:38:41.832Z,0.40
2022-12-31T05:41:08.963Z,0.40
2022-12-31T05:43:36.074Z,0.32
2022-12-31T05:46:04.170Z,0.40
2022-12-31T05:48:31.862Z,0.40
2022-12-31T05:50:59.294Z,0.30
2022-12-31T05:53:26.429Z,0.40
2022-12-31T05:55:53.519Z,0.43
2022-12-31T05:58:20.635Z,0.50
2022-12-31T06:00:47.867Z,0.30
2022-12-31T06:03:15.160Z,0.30
2022-12-31T06:05:42.971Z,0.30
2022-12-31T06:08:10.956Z,0.47
2022-12-31T06:10:38.307Z,0.50
2022-12-31T06:13:05.478Z,0.40
2022-12-31T06:15:33.026Z,0.50
2022-12-31T06:18:00.162Z,0.30
2022-12-31T06:20:27.329Z,0.40
2022-12-31T06:22:54.445Z,0.30
2022-12-31T06:25:21.580Z,0.30
2022-12-31T06:27:49.026Z,0.30
2022-12-31T06:30:16.261Z,0.40
2022-12-31T06:32:43.377Z,0.35
2022-12-31T06:35:10.527Z,0.40
2022-12-31T06:37:37.664Z,0.35
2022-12-31T06:40:05.067Z,0.30
2022-12-31T06:42:32.309Z,0.35
2022-12-31T06:45:00.008Z,0.30
2022-12-31T06:47:27.101Z,0.20
2022-12-31T06:49:54.300Z,0.30
2022-12-31T06:52:21.888Z,0.30
2022-12-31T06:54:49.247Z,0.20
2022-12-31T06:57:16.580Z,0.20
2022-12-31T06:59:44.947Z,0.30
2022-12-31T07:02:18.010Z,0.20
2022-12-31T07:05:04.189Z,0.30
2022-12-31T07:07:31.269Z,0.47
2022-12-31T07:10:04.508Z,0.60
2022-12-31T07:12:50.456Z,1.23
2022-12-31T07:15:17.635Z,0.95
2022-12-31T07:17:51.708Z,0.90
2022-12-31T07:20:19.574Z,0.60
2022-12-31T07:22:47.119Z,0.47
2022-12-31T07:25:15.321Z,0.40
2022-12-31T07:27:45.369Z,1.00
2022-12-31T07:30:15.542Z,0.30
2022-12-31T07:33:00.903Z,0.50
2022-12-31T07:35:39.997Z,0.38
2022-12-31T07:38:07.084Z,0.50
2022-12-31T07:40:46.622Z,0.30
2022-12-31T07:43:18.570Z,0.38
2022-12-31T07:45:57.708Z,0.75
2022-12-31T07:48:28.747Z,0.50
2022-12-31T07:50:57.047Z,0.38
2022-12-31T07:53:25.175Z,0.30
2022-12-31T07:55:59.885Z,0.60
2022-12-31T07:58:45.875Z,0.22
2022-12-31T08:01:14.146Z,0.55
2022-12-31T08:03:46.215Z,0.32
2022-12-31T08:06:31.404Z,0.63
2022-12-31T08:09:12.680Z,0.50
2022-12-31T08:14:09.564Z,0.45
2022-12-31T08:16:36.875Z,0.50
2022-12-31T08:19:05.175Z,0.50
2022-12-31T08:21:48.841Z,0.40
2022-12-31T08:24:31.511Z,0.50
2022-12-31T08:26:58.653Z,0.35
2022-12-31T08:29:45.687Z,0.50
2022-12-31T08:32:17.733Z,0.43
2022-12-31T08:34:54.194Z,1.50
2022-12-31T08:37:32.433Z,0.30
2022-12-31T08:40:02.407Z,0.47
2022-12-31T08:42:37.066Z,0.40
2022-12-31T08:45:24.213Z,0.30
2022-12-31T08:48:12.273Z,0.50
2022-12-31T08:50:39.574Z,0.40
2022-12-31T08:53:06.870Z,0.35
2022-12-31T08:55:34.197Z,0.60
2022-12-31T08:58:09.118Z,0.40
2022-12-31T09:00:37.224Z,0.47
2022-12-31T09:03:10.186Z,0.30
2022-12-31T09:05:53.247Z,0.50
2022-12-31T09:08:39.244Z,0.40
2022-12-31T09:11:06.377Z,0.38
2022-12-31T09:13:52.175Z,0.40
2022-12-31T09:16:23.196Z,0.47
2022-12-31T09:18:51.146Z,0.40
2022-12-31T09:21:19.302Z,0.50
2022-12-31T09:23:46.709Z,0.40
2022-12-31T09:26:29.145Z,0.40
2022-12-31T09:28:59.134Z,0.50
2022-12-31T09:31:36.578Z,1.10
2022-12-31T09:34:24.191Z,0.50
2022-12-31T09:36:58.200Z,0.70
2022-12-31T09:39:40.458Z,0.30
2022-12-31T09:42:19.914Z,0.30
2022-12-31T09:45:05.639Z,0.40
2022-12-31T09:47:52.000Z,0.45
2022-12-31T09:50:34.129Z,0.50
2022-12-31T09:53:19.707Z,0.50
2022-12-31T09:55:50.482Z,0.30
2022-12-31T09:58:32.351Z,0.40
2022-12-31T10:01:11.918Z,0.40
2022-12-31T10:03:42.113Z,0.43
2022-12-31T10:06:28.101Z,0.70
2022-12-31T10:08:58.051Z,0.45
2022-12-31T10:11:33.403Z,0.45
2022-12-31T10:14:19.148Z,0.52
2022-12-31T10:17:03.221Z,0.60
2022-12-31T10:19:36.242Z,0.40
2022-12-31T10:22:03.355Z,0.60
2022-12-31T10:24:46.431Z,0.30
2022-12-31T10:27:29.361Z,0.40
2022-12-31T10:29:59.638Z,0.30
2022-12-31T10:32:53.538Z,0.30
2022-12-31T10:35:35.472Z,0.30
2022-12-31T10:38:05.450Z,0.40
2022-12-31T10:40:50.848Z,0.30
2022-12-31T10:43:33.099Z,0.50
2022-12-31T10:46:00.277Z,0.20
2022-12-31T10:48:36.214Z,0.40
2022-12-31T10:51:21.841Z,0.50
2022-12-31T10:54:01.213Z,0.30
2022-12-31T10:56:46.833Z,0.30
2022-12-31T10:59:14.139Z,0.50
2022-12-31T11:01:53.168Z,0.35
2022-12-31T11:04:33.774Z,0.30
2022-12-31T11:07:25.179Z,0.30
2022-12-31T11:09:52.302Z,0.40
2022-12-31T11:12:22.223Z,0.65
2022-12-31T11:14:57.968Z,0.40
2022-12-31T11:17:35.579Z,0.50
2022-12-31T11:20:10.117Z,0.50
2022-12-31T11:22:56.789Z,0.40
2022-12-31T11:25:38.795Z,0.57
2022-12-31T11:28:24.419Z,0.40
2022-12-31T11:31:09.879Z,0.32
2022-12-31T11:33:50.616Z,0.38
2022-12-31T11:36:30.161Z,0.40
2022-12-31T11:39:03.331Z,0.40
2022-12-31T11:41:56.641Z,0.40
2022-12-31T11:44:38.959Z,0.50
2022-12-31T11:47:44.674Z,0.50
2022-12-31T11:50:40.599Z,0.30
2022-12-31T11:53:16.184Z,0.60
2022-12-31T11:55:56.641Z,0.50
2022-12-31T11:58:29.704Z,0.40
2022-12-31T12:00:58.222Z,0.47
2022-12-31T12:03:25.780Z,0.50
2022-12-31T12:05:53.388Z,0.40
2022-12-31T12:08:20.493Z,0.52
2022-12-31T12:10:56.392Z,0.43
2022-12-31T12:13:24.899Z,0.40
2022-12-31T12:15:53.824Z,0.75
2022-12-31T12:18:40.738Z,0.50
2022-12-31T12:21:11.533Z,0.57
2022-12-31T12:23:39.359Z,0.40
2022-12-31T12:26:07.369Z,0.40
2022-12-31T12:28:46.442Z,0.30
2022-12-31T12:31:21.779Z,0.57
2022-12-31T12:33:49.961Z,0.50
2022-12-31T12:36:18.509Z,0.45
2022-12-31T12:38:45.992Z,0.25
2022-12-31T12:41:25.311Z,0.40
2022-12-31T12:44:12.715Z,0.40
2022-12-31T12:46:48.010Z,0.30
2022-12-31T12:49:27.614Z,0.30
2022-12-31T12:52:14.461Z,0.60
2022-12-31T12:55:05.261Z,0.45
2022-12-31T12:57:43.349Z,0.40
2022-12-31T13:00:31.518Z,0.40
2022-12-31T13:02:58.687Z,0.30
2022-12-31T13:05:28.320Z,0.28
2022-12-31T13:08:14.747Z,0.47
2022-12-31T13:10:41.880Z,0.50
2022-12-31T13:13:25.377Z,0.40
2022-12-31T13:16:09.079Z,0.50
2022-12-31T13:18:42.145Z,0.40
2022-12-31T13:21:12.065Z,0.40
2022-12-31T13:23:43.828Z,0.57
2022-12-31T13:26:14.011Z,0.43
2022-12-31T13:28:42.902Z,0.32
2022-12-31T13:31:15.814Z,0.50
2022-12-31T13:33:48.308Z,0.50
2022-12-31T13:36:17.237Z,0.40
2022-12-31T13:38:46.692Z,0.52
2022-12-31T13:41:24.586Z,0.60
2022-12-31T13:43:59.311Z,0.63
2022-12-31T13:46:35.478Z,0.40
2022-12-31T13:49:05.561Z,0.52
2022-12-31T13:51:32.642Z,1.00
2022-12-31T13:54:15.258Z,0.70
2022-12-31T13:56:43.672Z,0.80
2022-12-31T13:59:31.262Z,0.80
2022-12-31T14:02:06.468Z,0.70
2022-12-31T14:04:56.331Z,0.70
2022-12-31T14:07:35.370Z,0.70
2022-12-31T14:12:47.254Z,0.80
2022-12-31T14:15:32.542Z,0.80
2022-12-31T14:18:26.280Z,1.00
2022-12-31T14:21:02.742Z,0.95
2022-12-31T14:23:48.491Z,0.90
2022-12-31T14:26:31.281Z,0.70
2022-12-31T14:28:58.316Z,0.90
2022-12-31T14:31:30.188Z,0.80
2022-12-31T14:34:06.021Z,0.95
2022-12-31T14:36:37.765Z,1.00
2022-12-31T14:39:13.829Z,0.90
2022-12-31T14:41:48.698Z,0.80
2022-12-31T14:44:24.890Z,0.80
2022-12-31T14:47:10.652Z,0.95
2022-12-31T14:49:55.801Z,0.70
2022-12-31T14:52:25.089Z,0.80
2022-12-31T14:55:18.336Z,1.23
2022-12-31T14:58:25.800Z,0.95
2022-12-31T15:03:07.292Z,1.00
2022-12-31T15:05:36.323Z,0.98
2022-12-31T15:10:59.178Z,0.80
2022-12-31T15:13:45.082Z,0.73
2022-12-31T15:16:31.271Z,0.88
2022-12-31T15:19:10.349Z,0.90
2022-12-31T15:21:42.278Z,0.85
2022-12-31T15:24:20.766Z,0.95
2022-12-31T15:26:49.796Z,0.80
2022-12-31T15:29:25.623Z,0.68
2022-12-31T15:31:53.303Z,1.10
2022-12-31T15:34:34.747Z,0.98
2022-12-31T15:37:03.614Z,0.98
2022-12-31T15:39:33.794Z,1.08
2022-12-31T15:44:55.864Z,0.80
2022-12-31T15:47:30.831Z,1.08
2022-12-31T15:50:00.676Z,0.80
2022-12-31T15:52:40.613Z,0.82
2022-12-31T15:55:08.367Z,0.90
2022-12-31T15:57:40.302Z,1.05
2022-12-31T16:00:17.027Z,1.23
2022-12-31T16:02:44.543Z,1.10
2022-12-31T16:05:19.472Z,1.00
2022-12-31T16:07:46.741Z,1.02
2022-12-31T16:10:17.924Z,0.90
2022-12-31T16:12:45.642Z,1.30
2022-12-31T16:15:21.334Z,1.00
2022-12-31T16:17:58.695Z,1.20
2022-12-31T16:20:27.099Z,1.20
2022-12-31T16:22:57.514Z,1.20
2022-12-31T16:25:33.563Z,1.10
2022-12-31T16:28:02.213Z,1.27
2022-12-31T16:30:30.813Z,1.20
2022-12-31T16:33:02.406Z,1.25
2022-12-31T16:35:33.763Z,1.50
2022-12-31T16:38:13.415Z,1.40
2022-12-31T16:40:41.485Z,1.35
2022-12-31T16:43:34.651Z,1.45
2022-12-31T16:46:13.272Z,1.40
2022-12-31T16:48:40.717Z,1.27
2022-12-31T16:51:14.825Z,1.88
2022-12-31T16:53:42.632Z,1.55
2022-12-31T16:56:09.887Z,2.25
2022-12-31T16:58:40.022Z,1.58
2022-12-31T17:01:16.730Z,2.00
2022-12-31T17:03:46.007Z,2.05
2022-12-31T17:06:14.685Z,1.92
2022-12-31T17:08:41.909Z,2.10
2022-12-31T17:11:35.663Z,1.92
2022-12-31T17:14:08.867Z,2.25
2022-12-31T17:16:36.917Z,2.38
2022-12-31T17:19:04.226Z,2.10
2022-12-31T17:21:32.459Z,2.50
2022-12-31T17:24:05.289Z,2.00
2022-12-31T17:26:34.308Z,2.33
2022-12-31T17:31:33.454Z,2.45
2022-12-31T17:34:12.897Z,2.28
2022-12-31T17:36:53.486Z,3.10
2022-12-31T17:39:22.438Z,2.60
2022-12-31T17:44:21.447Z,2.63
2022-12-31T17:46:52.010Z,2.33
2022-12-31T17:49:21.841Z,2.83
2022-12-31T17:51:49.082Z,2.60
2022-12-31T17:54:16.637Z,2.53
2022-12-31T17:56:44.283Z,2.83
2022-12-31T17:59:22.442Z,2.90
2022-12-31T18:01:51.189Z,2.25
2022-12-31T18:04:20.630Z,2.60
2022-12-31T18:06:50.046Z,3.38
2022-12-31T18:09:18.077Z,4.18
2022-12-31T18:11:45.792Z,2.70
2022-12-31T18:14:16.440Z,2.38
2022-12-31T18:16:43.671Z,3.22
2022-12-31T18:19:37.701Z,3.20
2022-12-31T18:22:01.917Z,2.35
2022-12-31T18:24:29.002Z,2.83
2022-12-31T18:26:56.132Z,3.22
2022-12-31T18:29:23.395Z,2.30
2022-12-31T18:31:51.141Z,2.22
2022-12-31T18:34:19.075Z,2.67
2022-12-31T18:36:46.429Z,3.05
2022-12-31T18:39:13.781Z,3.10
2022-12-31T18:41:42.615Z,3.78
2022-12-31T18:44:11.913Z,3.05
2022-12-31T18:46:39.091Z,3.40
2022-12-31T18:49:06.306Z,2.75
2022-12-31T18:51:33.488Z,3.03
2022-12-31T18:54:01.171Z,3.05
2022-12-31T18:56:28.419Z,2.78
2022-12-31T18:58:55.758Z,2.90
2022-12-31T19:01:30.972Z,3.25
2022-12-31T19:04:02.671Z,2.67
2022-12-31T19:06:30.589Z,3.17
2022-12-31T19:08:59.176Z,3.00
2022-12-31T19:11:28.120Z,3.03
2022-12-31T19:13:55.415Z,3.10
2022-12-31T19:16:22.628Z,3.30
2022-12-31T19:18:50.879Z,3.60
2022-12-31T19:21:20.084Z,4.03
2022-12-31T19:23:47.676Z,3.75
2022-12-31T19:26:15.702Z,3.85
2022-12-31T19:28:43.196Z,3.80
2022-12-31T19:31:10.436Z,3.92
2022-12-31T19:33:37.628Z,4.35
2022-12-31T19:36:07.315Z,4.15
2022-12-31T19:38:34.754Z,4.70
2022-12-31T19:41:02.184Z,4.72
2022-12-31T19:43:29.437Z,5.20
2022-12-31T19:45:56.688Z,4.70
2022-12-31T19:48:32.333Z,5.50
2022-12-31T19:51:00.443Z,5.68
2022-12-31T19:53:27.985Z,5.65
2022-12-31T19:55:55.219Z,6.55
2022-12-31T19:58:25.613Z,6.55
2022-12-31T20:01:01.960Z,7.70
2022-12-31T20:03:31.605Z,7.53
2022-12-31T20:06:09.455Z,7.90
2022-12-31T20:08:38.242Z,7.22
2022-12-31T20:11:09.211Z,7.35
2022-12-31T20:13:37.235Z,9.20
2022-12-31T20:16:06.536Z,7.03
2022-12-31T20:18:33.760Z,8.57
2022-12-31T20:21:00.862Z,7.43
2022-12-31T20:23:27.998Z,8.27
2022-12-31T20:25:58.816Z,7.13
2022-12-31T20:28:25.954Z,7.25
2022-12-31T20:30:53.374Z,8.15
2022-12-31T20:33:20.533Z,7.30
2022-12-31T20:35:47.620Z,7.72
2022-12-31T20:38:14.938Z,7.40
2022-12-31T20:40:46.711Z,8.48
2022-12-31T20:43:14.120Z,6.78
2022-12-31T20:45:42.051Z,7.80
2022-12-31T20:48:09.695Z,7.25
2022-12-31T20:50:36.839Z,7.72
2022-12-31T20:53:04.057Z,6.88
2022-12-31T20:55:32.244Z,7.78
2022-12-31T20:58:00.563Z,7.47
2022-12-31T21:00:27.729Z,6.82
2022-12-31T21:03:04.114Z,7.30
2022-12-31T21:05:39.167Z,7.18
2022-12-31T21:08:06.377Z,6.60
2022-12-31T21:10:34.486Z,8.02
2022-12-31T21:13:01.578Z,7.53
2022-12-31T21:15:28.772Z,6.72
2022-12-31T21:17:55.965Z,7.18
2022-12-31T21:20:23.247Z,7.60
2022-12-31T21:22:50.399Z,7.03
2022-12-31T21:25:17.550Z,6.70
2022-12-31T21:27:44.712Z,6.03
2022-12-31T21:30:20.303Z,6.93
2022-12-31T21:32:47.801Z,7.05
2022-12-31T21:38:02.731Z,7.20
2022-12-31T21:40:30.587Z,6.68
2022-12-31T21:42:58.006Z,6.70
2022-12-31T21:45:25.476Z,6.47
2022-12-31T21:48:11.168Z,6.75
2022-12-31T21:50:38.398Z,6.55
2022-12-31T21:53:05.554Z,6.72
2022-12-31T21:55:51.494Z,6.57
2022-12-31T21:58:27.607Z,6.72
2022-12-31T22:01:14.379Z,6.75
2022-12-31T22:03:41.712Z,6.68
2022-12-31T22:06:10.582Z,6.65
2022-12-31T22:08:37.757Z,5.95
2022-12-31T22:11:04.983Z,6.25
2022-12-31T22:13:32.349Z,5.82
2022-12-31T22:16:05.301Z,7.30
2022-12-31T22:18:35.087Z,5.97
2022-12-31T22:21:22.622Z,7.13
2022-12-31T22:23:50.841Z,5.82
2022-12-31T22:26:19.216Z,5.55
2022-12-31T22:28:46.930Z,6.03
2022-12-31T22:31:15.642Z,5.18
2022-12-31T22:33:43.025Z,5.43
2022-12-31T22:36:15.068Z,5.40
2022-12-31T22:38:42.308Z,5.80
2022-12-31T22:41:13.904Z,5.93
2022-12-31T22:43:42.969Z,5.95
2022-12-31T22:46:10.581Z,6.35
2022-12-31T22:48:37.992Z,5.10
2022-12-31T22:51:07.485Z,5.50
2022-12-31T22:53:34.707Z,4.97
2022-12-31T22:56:02.221Z,5.47
2022-12-31T22:58:29.753Z,5.00
2022-12-31T23:00:56.875Z,5.78
2022-12-31T23:03:24.054Z,5.45
2022-12-31T23:05:52.466Z,5.18
2022-12-31T23:08:23.424Z,5.07
2022-12-31T23:11:01.413Z,5.40
2022-12-31T23:13:50.988Z,5.43
2022-12-31T23:16:38.180Z,5.45
2022-12-31T23:19:24.251Z,5.30
2022-12-31T23:22:10.249Z,6.45
2022-12-31T23:24:37.576Z,5.85
2022-12-31T23:27:04.931Z,5.72
2022-12-31T23:29:32.096Z,6.38
2022-12-31T23:32:01.790Z,6.60
2022-12-31T23:34:29.125Z,6.95
2022-12-31T23:36:57.959Z,7.00
2022-12-31T23:39:25.267Z,7.40
2022-12-31T23:41:52.522Z,7.18
2022-12-31T23:44:19.640Z,7.63
2022-12-31T23:46:46.876Z,8.25
2022-12-31T23:49:14.093Z,7.35
2022-12-31T23:51:41.199Z,7.95
2022-12-31T23:54:09.617Z,9.07
2022-12-31T23:56:36.757Z,7.85
2022-12-31T23:59:03.908Z,8.65
